Seattle, Washington
Traffic Map
Current Weather Conditions
Seattle, Washington
Broken Clouds
Broken Clouds
52°
Feels Like: 52°
Wind Chill: 52° Ceiling: 11000
Heat Index: 52° Visibility: 10mi
Dew Point: 34° Wind: 0mph
Humidity: 50% Direction: ° ()
Pressure: 29.99in Gusts: 0mph
Raw Report DataKBFI 020253Z 00000KT 10SM BKN110 11/01 A2999 RMK AO2 SLP155 T01110011 56019
Traffic Incident Summary
Active as of:
Severity:
Category:
InformationThere was an issue retrieving the traffic information for this location. Please try a different location or try again shortly.
Advertisements
Track Severe Weather on mobile